createdAt,value
2016-06-27T00:00:49.864Z,14.89
2016-06-27T00:01:49.833Z,14.89
2016-06-27T00:02:50.998Z,14.88
2016-06-27T00:03:50.984Z,14.92
2016-06-27T00:04:50.367Z,14.96
2016-06-27T00:05:50.959Z,14.91
2016-06-27T00:06:50.919Z,14.84
2016-06-27T00:07:50.902Z,14.88
2016-06-27T00:08:50.271Z,14.88
2016-06-27T00:09:50.257Z,14.84
2016-06-27T00:10:50.234Z,14.89
2016-06-27T00:11:50.293Z,14.86
2016-06-27T00:12:50.794Z,14.84
2016-06-27T00:13:50.177Z,14.89
2016-06-27T00:14:50.147Z,14.85
2016-06-27T00:15:50.135Z,14.84
2016-06-27T00:16:49.526Z,14.82
2016-06-27T00:17:50.083Z,14.81
2016-06-27T00:18:49.470Z,14.73
2016-06-27T00:19:50.040Z,14.72
2016-06-27T00:20:50.623Z,14.7
2016-06-27T00:21:50.014Z,14.79
2016-06-27T00:22:49.384Z,14.7
2016-06-27T00:23:49.352Z,14.72
2016-06-27T00:24:49.934Z,14.77
2016-06-27T00:25:50.519Z,14.78
2016-06-27T00:26:50.479Z,14.73
2016-06-27T00:27:50.462Z,14.7
2016-06-27T00:28:49.847Z,14.72
2016-06-27T00:29:50.433Z,14.7
2016-06-27T00:30:49.198Z,14.78
2016-06-27T00:31:50.374Z,14.72
2016-06-27T00:32:49.766Z,14.73
2016-06-27T00:33:49.151Z,14.69
2016-06-27T00:34:49.111Z,14.69
2016-06-27T00:35:50.286Z,14.62
2016-06-27T00:36:49.663Z,14.68
2016-06-27T00:37:49.047Z,14.6
2016-06-27T00:38:49.622Z,14.68
2016-06-27T00:39:49.604Z,14.65
2016-06-27T00:40:50.183Z,14.63
2016-06-27T00:41:49.546Z,14.6
2016-06-27T00:42:49.545Z,14.63
2016-06-27T00:43:48.932Z,14.66
2016-06-27T00:44:49.490Z,14.63
2016-06-27T00:45:49.461Z,14.65
2016-06-27T00:46:50.061Z,14.63
2016-06-27T00:47:50.033Z,14.65
2016-06-27T00:48:49.406Z,14.65
2016-06-27T00:49:49.390Z,14.62
2016-06-27T00:50:49.358Z,14.59
2016-06-27T00:51:49.340Z,14.58
2016-06-27T00:52:49.330Z,14.55
2016-06-27T00:53:49.895Z,14.58
2016-06-27T00:54:49.862Z,14.45
2016-06-27T00:55:48.654Z,14.51
2016-06-27T00:56:49.841Z,14.6
2016-06-27T00:57:49.198Z,14.44
2016-06-27T00:58:48.636Z,14.54
2016-06-27T00:59:49.164Z,14.53
2016-06-27T01:00:49.734Z,14.54
2016-06-27T01:01:49.118Z,14.48
2016-06-27T01:02:48.498Z,14.51
2016-06-27T01:03:49.678Z,14.53
2016-06-27T01:04:49.067Z,14.51
2016-06-27T01:05:48.440Z,14.45
2016-06-27T01:06:48.405Z,14.53
2016-06-27T01:07:49.591Z,14.53
2016-06-27T01:08:48.959Z,14.47
2016-06-27T01:09:49.546Z,14.45
2016-06-27T01:10:48.970Z,14.5
2016-06-27T01:11:48.914Z,14.37
2016-06-27T01:12:49.495Z,14.35
2016-06-27T01:13:49.453Z,14.4
2016-06-27T01:14:48.839Z,14.36
2016-06-27T01:15:48.214Z,14.4
2016-06-27T01:16:49.393Z,14.36
2016-06-27T01:17:48.761Z,14.36
2016-06-27T01:18:48.746Z,14.37
2016-06-27T01:19:48.128Z,14.36
2016-06-27T01:20:48.712Z,14.35
2016-06-27T01:21:48.699Z,14.4
2016-06-27T01:22:48.076Z,14.35
2016-06-27T01:23:48.031Z,14.37
2016-06-27T01:24:48.603Z,14.37
2016-06-27T01:25:47.987Z,14.33
2016-06-27T01:26:48.573Z,14.33
2016-06-27T01:27:48.541Z,14.33
2016-06-27T01:28:48.522Z,14.4
2016-06-27T01:29:47.911Z,14.37
2016-06-27T01:30:48.496Z,14.33
2016-06-27T01:31:49.045Z,14.35
2016-06-27T01:32:48.432Z,14.37
2016-06-27T01:33:48.403Z,14.4
2016-06-27T01:34:47.815Z,14.36
2016-06-27T01:35:48.387Z,14.35
2016-06-27T01:36:48.974Z,14.4
2016-06-27T01:37:48.325Z,14.47
2016-06-27T01:38:48.919Z,14.36
2016-06-27T01:39:48.283Z,14.44
2016-06-27T01:40:48.853Z,14.47
2016-06-27T01:41:48.854Z,14.51
2016-06-27T01:42:48.807Z,14.5
2016-06-27T01:43:48.790Z,14.5
2016-06-27T01:44:48.764Z,14.51
2016-06-27T01:45:48.183Z,14.47
2016-06-27T01:46:48.163Z,14.5
2016-06-27T01:47:47.550Z,14.5
2016-06-27T01:48:48.676Z,14.45
2016-06-27T01:49:48.676Z,14.44
2016-06-27T01:50:48.652Z,14.43
2016-06-27T01:51:48.610Z,14.36
2016-06-27T01:52:47.982Z,14.41
2016-06-27T01:53:48.568Z,14.35
2016-06-27T01:54:47.953Z,14.36
2016-06-27T01:55:48.524Z,14.47
2016-06-27T01:56:47.330Z,14.37
2016-06-27T01:57:48.469Z,14.44
2016-06-27T01:58:47.857Z,14.37
2016-06-27T01:59:47.247Z,14.33
2016-06-27T02:00:47.833Z,14.37
2016-06-27T02:01:48.396Z,14.37
2016-06-27T02:02:47.194Z,14.35
2016-06-27T02:03:47.755Z,14.33
2016-06-27T02:04:47.724Z,14.35
2016-06-27T02:05:48.296Z,14.36
2016-06-27T02:06:47.069Z,14.37
2016-06-27T02:07:47.658Z,14.33
2016-06-27T02:08:48.224Z,14.33
2016-06-27T02:09:47.026Z,14.37
2016-06-27T02:10:47.588Z,14.32
2016-06-27T02:11:48.212Z,14.23
2016-06-27T02:12:47.547Z,14.4
2016-06-27T02:13:47.521Z,14.25
2016-06-27T02:14:47.512Z,14.32
2016-06-27T02:15:47.484Z,14.32
2016-06-27T02:16:47.458Z,14.25
2016-06-27T02:17:46.849Z,14.28
2016-06-27T02:18:48.001Z,14.2
2016-06-27T02:19:47.398Z,14.25
2016-06-27T02:20:47.964Z,14.2
2016-06-27T02:21:46.744Z,14.17
2016-06-27T02:22:47.329Z,14.2
2016-06-27T02:23:47.899Z,14.22
2016-06-27T02:24:47.875Z,14.26
2016-06-27T02:25:47.856Z,14.23
2016-06-27T02:26:46.638Z,14.25
2016-06-27T02:27:47.199Z,14.25
2016-06-27T02:28:47.194Z,14.22
2016-06-27T02:29:47.166Z,14.22
2016-06-27T02:30:47.157Z,14.23
2016-06-27T02:31:47.120Z,14.23
2016-06-27T02:32:46.505Z,14.18
2016-06-27T02:33:47.073Z,14.23
2016-06-27T02:34:47.047Z,14.23
2016-06-27T02:35:47.628Z,14.23
2016-06-27T02:36:47.014Z,14.22
2016-06-27T02:37:47.002Z,14.23
2016-06-27T02:38:46.962Z,14.2
2016-06-27T02:39:46.347Z,14.2
2016-06-27T02:40:47.528Z,14.2
2016-06-27T02:41:46.917Z,14.17
2016-06-27T02:42:46.278Z,14.26
2016-06-27T02:43:47.461Z,14.17
2016-06-27T02:44:47.433Z,14.17
2016-06-27T02:45:46.805Z,14.17
2016-06-27T02:46:46.202Z,14.15
2016-06-27T02:47:47.365Z,14.12
2016-06-27T02:48:46.154Z,14.14
2016-06-27T02:49:46.713Z,14.11
2016-06-27T02:50:46.687Z,14.12
2016-06-27T02:51:46.684Z,14.11
2016-06-27T02:52:47.255Z,14.14
2016-06-27T02:53:47.223Z,14.11
2016-06-27T02:54:46.600Z,14.1
2016-06-27T02:55:46.614Z,14.12
2016-06-27T02:56:46.561Z,14.1
2016-06-27T02:57:47.135Z,14.14
2016-06-27T02:58:47.129Z,14.11
2016-06-27T02:59:46.508Z,14.05
2016-06-27T03:00:46.461Z,14.14
2016-06-27T03:01:46.445Z,14.08
2016-06-27T03:02:46.423Z,14.11
2016-06-27T03:03:46.994Z,14.05
2016-06-27T03:04:46.382Z,14.05
2016-06-27T03:05:46.951Z,14.03
2016-06-27T03:06:45.740Z,14.11
2016-06-27T03:07:46.321Z,14.07
2016-06-27T03:08:46.898Z,14.12
2016-06-27T03:09:46.892Z,14.07
2016-06-27T03:10:46.851Z,14.07
2016-06-27T03:11:46.833Z,14.07
2016-06-27T03:12:46.211Z,14.08
2016-06-27T03:13:45.603Z,14.05
2016-06-27T03:14:46.163Z,14.14
2016-06-27T03:15:46.136Z,14.07
2016-06-27T03:16:46.122Z,14.04
2016-06-27T03:17:46.687Z,14.08
2016-06-27T03:18:46.667Z,14.05
2016-06-27T03:19:46.662Z,14.05
2016-06-27T03:20:45.438Z,14
2016-06-27T03:21:46.008Z,14.07
2016-06-27T03:22:45.981Z,14.03
2016-06-27T03:23:46.564Z,14.04
2016-06-27T03:24:46.535Z,13.99
2016-06-27T03:25:46.509Z,14.03
2016-06-27T03:26:46.495Z,14.08
2016-06-27T03:27:46.465Z,14.08
2016-06-27T03:28:45.845Z,14.04
2016-06-27T03:29:46.443Z,14.07
2016-06-27T03:30:46.406Z,14.03
2016-06-27T03:31:46.378Z,14.1
2016-06-27T03:32:45.164Z,14.12
2016-06-27T03:33:46.321Z,14.07
2016-06-27T03:34:46.305Z,13.99
2016-06-27T03:35:45.685Z,14.04
2016-06-27T03:36:46.257Z,14.08
2016-06-27T03:37:45.034Z,14.14
2016-06-27T03:38:45.622Z,14.11
2016-06-27T03:39:45.604Z,14.12
2016-06-27T03:40:45.572Z,14.1
2016-06-27T03:41:45.568Z,14.07
2016-06-27T03:42:46.174Z,14.15
2016-06-27T03:43:45.511Z,14.08
2016-06-27T03:44:44.894Z,14.14
2016-06-27T03:45:45.482Z,14.14
2016-06-27T03:46:45.482Z,14.1
2016-06-27T03:47:45.418Z,14.1
2016-06-27T03:48:45.995Z,14.08
2016-06-27T03:49:45.992Z,14.15
2016-06-27T03:50:44.760Z,14.1
2016-06-27T03:51:45.939Z,14.18
2016-06-27T03:52:44.711Z,14.22
2016-06-27T03:53:45.884Z,14.11
2016-06-27T03:54:44.675Z,14.12
2016-06-27T03:55:45.848Z,14.2
2016-06-27T03:56:44.619Z,14.26
2016-06-27T03:57:45.204Z,14.2
2016-06-27T03:58:45.772Z,14.28
2016-06-27T03:59:44.552Z,14.26
2016-06-27T04:00:45.154Z,14.2
2016-06-27T04:01:45.140Z,14.15
2016-06-27T04:02:45.694Z,14.17
2016-06-27T04:03:44.458Z,14.2
2016-06-27T04:04:45.647Z,14.25
2016-06-27T04:05:45.027Z,14.17
2016-06-27T04:06:45.606Z,14.18
2016-06-27T04:07:45.571Z,14.18
2016-06-27T04:08:45.547Z,14.2
2016-06-27T04:09:44.334Z,14.2
2016-06-27T04:10:44.918Z,14.17
2016-06-27T04:11:44.323Z,14.22
2016-06-27T04:12:44.856Z,14.2
2016-06-27T04:13:45.446Z,14.26
2016-06-27T04:14:45.409Z,14.22
2016-06-27T04:15:45.405Z,14.25
2016-06-27T04:16:45.393Z,14.3
2016-06-27T04:17:44.759Z,14.35
2016-06-27T04:18:44.132Z,14.36
2016-06-27T04:19:44.718Z,14.3
2016-06-27T04:20:44.689Z,14.29
2016-06-27T04:21:44.671Z,14.29
2016-06-27T04:22:44.647Z,14.35
2016-06-27T04:23:45.213Z,14.4
2016-06-27T04:24:45.226Z,14.33
2016-06-27T04:25:43.983Z,14.36
2016-06-27T04:26:45.171Z,14.4
2016-06-27T04:27:44.542Z,14.35
2016-06-27T04:28:43.916Z,14.4
2016-06-27T04:29:45.092Z,14.41
2016-06-27T04:30:45.073Z,14.4
2016-06-27T04:31:43.868Z,14.36
2016-06-27T04:32:44.428Z,14.35
2016-06-27T04:33:45.028Z,14.36
2016-06-27T04:34:44.384Z,14.47
2016-06-27T04:35:43.763Z,14.47
2016-06-27T04:36:44.334Z,14.43
2016-06-27T04:37:44.332Z,14.47
2016-06-27T04:38:44.287Z,14.51
2016-06-27T04:39:43.675Z,14.51
2016-06-27T04:40:44.879Z,14.55
2016-06-27T04:41:44.232Z,14.55
2016-06-27T04:42:43.622Z,14.6
2016-06-27T04:43:44.194Z,14.54
2016-06-27T04:44:43.582Z,14.6
2016-06-27T04:45:43.549Z,14.59
2016-06-27T04:46:44.730Z,14.63
2016-06-27T04:47:44.698Z,14.69
2016-06-27T04:48:44.674Z,14.62
2016-06-27T04:49:43.451Z,14.7
2016-06-27T04:50:44.033Z,14.77
2016-06-27T04:51:44.613Z,14.66
2016-06-27T04:52:44.613Z,14.72
2016-06-27T04:53:44.591Z,14.73
2016-06-27T04:54:43.363Z,14.77
2016-06-27T04:55:43.938Z,14.73
2016-06-27T04:56:43.311Z,14.7
2016-06-27T04:57:43.880Z,14.79
2016-06-27T04:58:43.873Z,14.85
2016-06-27T04:59:43.875Z,14.86
2016-06-27T05:00:43.832Z,14.81
2016-06-27T05:01:44.394Z,14.86
2016-06-27T05:02:44.375Z,14.86
2016-06-27T05:03:43.159Z,14.92
2016-06-27T05:04:44.334Z,14.92
2016-06-27T05:05:44.307Z,14.86
2016-06-27T05:06:43.102Z,14.97
2016-06-27T05:07:43.682Z,14.88
2016-06-27T05:08:43.688Z,14.97
2016-06-27T05:09:44.232Z,15.04
2016-06-27T05:10:43.633Z,15.09
2016-06-27T05:11:43.584Z,15.1
2016-06-27T05:12:44.170Z,15.06
2016-06-27T05:13:43.541Z,15.1
2016-06-27T05:14:44.167Z,15.15
2016-06-27T05:15:44.099Z,15.17
2016-06-27T05:16:44.107Z,15.21
2016-06-27T05:17:44.090Z,15.22
2016-06-27T05:18:43.461Z,15.21
2016-06-27T05:19:43.426Z,15.29
2016-06-27T05:20:43.437Z,15.29
2016-06-27T05:21:43.379Z,15.43
2016-06-27T05:22:43.370Z,15.44
2016-06-27T05:23:42.733Z,15.42
2016-06-27T05:24:43.922Z,15.49
2016-06-27T05:25:43.891Z,15.51
2016-06-27T05:26:42.671Z,15.44
2016-06-27T05:27:43.854Z,15.54
2016-06-27T05:28:47.047Z,15.58
2016-06-27T05:29:44.485Z,15.65
2016-06-27T05:30:43.791Z,15.67
2016-06-27T05:31:43.172Z,15.8
2016-06-27T05:32:43.166Z,15.84
2016-06-27T05:33:43.727Z,16.04
2016-06-27T05:34:43.711Z,16.04
2016-06-27T05:35:43.099Z,16.16
2016-06-27T05:36:43.077Z,16.36
2016-06-27T05:37:43.650Z,16.51
2016-06-27T05:38:43.040Z,16.68
2016-06-27T05:39:43.012Z,16.86
2016-06-27T05:40:43.008Z,16.96
2016-06-27T05:41:42.386Z,16.97
2016-06-27T05:42:42.378Z,17.04
2016-06-27T05:43:42.966Z,17.16
2016-06-27T05:44:42.339Z,17.19
2016-06-27T05:45:42.926Z,17.24
2016-06-27T05:46:42.898Z,17.34
2016-06-27T05:47:42.891Z,17.33
2016-06-27T05:48:42.262Z,17.44
2016-06-27T05:49:42.839Z,17.44
2016-06-27T05:50:43.426Z,17.46
2016-06-27T05:51:43.410Z,17.49
2016-06-27T05:52:42.800Z,17.45
2016-06-27T05:53:43.374Z,17.57
2016-06-27T05:54:43.387Z,17.64
2016-06-27T05:55:42.741Z,17.65
2016-06-27T05:56:42.747Z,17.74
2016-06-27T05:57:42.096Z,17.8
2016-06-27T05:58:42.686Z,17.82
2016-06-27T05:59:43.268Z,17.95
2016-06-27T06:00:42.894Z,18.08
2016-06-27T06:01:42.641Z,18.16
2016-06-27T06:02:42.622Z,18.2
2016-06-27T06:03:42.007Z,18.19
2016-06-27T06:04:43.190Z,18.19
2016-06-27T06:05:41.979Z,18.2
2016-06-27T06:06:41.949Z,18.28
2016-06-27T06:07:41.924Z,18.31
2016-06-27T06:08:42.550Z,18.35
2016-06-27T06:09:42.494Z,18.29
2016-06-27T06:10:42.490Z,18.23
2016-06-27T06:11:42.486Z,18.23
2016-06-27T06:12:41.845Z,18.15
2016-06-27T06:13:43.021Z,18.08
2016-06-27T06:14:41.841Z,17.9
2016-06-27T06:15:42.994Z,17.95
2016-06-27T06:16:42.378Z,18.08
2016-06-27T06:17:42.953Z,18.07
2016-06-27T06:18:42.349Z,18.04
2016-06-27T06:19:41.770Z,18.22
2016-06-27T06:20:42.297Z,18.15
2016-06-27T06:21:41.702Z,18.23
2016-06-27T06:22:42.866Z,18.19
2016-06-27T06:23:42.874Z,18.19
2016-06-27T06:24:42.267Z,18.19
2016-06-27T06:25:42.236Z,18.15
2016-06-27T06:26:42.226Z,18.16
2016-06-27T06:27:41.643Z,18.11
2016-06-27T06:28:41.583Z,18.16
2016-06-27T06:29:42.765Z,18.19
2016-06-27T06:30:42.790Z,18.16
2016-06-27T06:31:42.735Z,18.2
2016-06-27T06:32:42.716Z,18.2
2016-06-27T06:33:42.106Z,18.31
2016-06-27T06:34:42.687Z,18.34
2016-06-27T06:35:42.086Z,18.37
2016-06-27T06:36:42.070Z,18.38
2016-06-27T06:37:42.053Z,18.52
2016-06-27T06:38:42.635Z,18.45
2016-06-27T06:39:42.030Z,18.5
2016-06-27T06:40:41.999Z,18.5
2016-06-27T06:41:41.994Z,18.47
2016-06-27T06:42:42.561Z,18.44
2016-06-27T06:43:41.954Z,18.56
2016-06-27T06:44:41.936Z,18.62
2016-06-27T06:45:41.942Z,18.71
2016-06-27T06:46:42.513Z,18.84
2016-06-27T06:47:42.490Z,18.81
2016-06-27T06:48:41.888Z,18.84
2016-06-27T06:49:41.721Z,18.84
2016-06-27T06:50:41.863Z,18.81
2016-06-27T06:51:42.446Z,18.96
2016-06-27T06:52:42.482Z,19.14
2016-06-27T06:53:41.808Z,19.27
2016-06-27T06:54:41.214Z,19.24
2016-06-27T06:55:42.386Z,19.4
2016-06-27T06:56:42.367Z,19.44
2016-06-27T06:57:41.764Z,19.55
2016-06-27T06:58:42.340Z,19.54
2016-06-27T06:59:41.763Z,19.66
2016-06-27T07:00:41.720Z,19.66
2016-06-27T07:01:41.111Z,19.7
2016-06-27T07:02:41.114Z,19.67
2016-06-27T07:03:41.683Z,19.88
2016-06-27T07:04:42.254Z,19.92
2016-06-27T07:05:41.662Z,20.06
2016-06-27T07:06:42.230Z,20.04
2016-06-27T07:07:41.633Z,20.07
2016-06-27T07:08:41.622Z,20.06
2016-06-27T07:09:42.208Z,20.07
2016-06-27T07:10:42.191Z,20.09
2016-06-27T07:11:40.987Z,20.13
2016-06-27T07:12:42.208Z,20.18
2016-06-27T07:13:40.969Z,20.34
2016-06-27T07:14:42.134Z,20.52
2016-06-27T07:15:41.560Z,20.43
2016-06-27T07:16:41.545Z,20.48
2016-06-27T07:17:40.941Z,20.56
2016-06-27T07:18:41.504Z,20.75
2016-06-27T07:19:40.885Z,20.87
2016-06-27T07:20:40.876Z,20.9
2016-06-27T07:21:41.465Z,20.88
2016-06-27T07:22:41.463Z,20.92
2016-06-27T07:23:42.045Z,20.95
2016-06-27T07:24:42.038Z,20.93
2016-06-27T07:25:40.821Z,20.99
2016-06-27T07:26:42.008Z,21.15
2016-06-27T07:27:40.797Z,21.07
2016-06-27T07:28:41.376Z,21.11
2016-06-27T07:29:41.978Z,21.15
2016-06-27T07:30:41.960Z,21.21
2016-06-27T07:31:41.349Z,21.3
2016-06-27T07:32:41.935Z,21.39
2016-06-27T07:33:40.733Z,21.55
2016-06-27T07:34:41.923Z,21.51
2016-06-27T07:35:41.931Z,21.6
2016-06-27T07:36:41.293Z,21.55
2016-06-27T07:37:41.878Z,21.43
2016-06-27T07:38:41.267Z,21.33
2016-06-27T07:39:40.667Z,21.14
2016-06-27T07:40:41.830Z,21.03
2016-06-27T07:41:41.834Z,20.97
2016-06-27T07:42:41.818Z,21.05
2016-06-27T07:43:40.615Z,21.06
2016-06-27T07:44:40.609Z,21.21
2016-06-27T07:45:41.190Z,21.14
2016-06-27T07:46:41.775Z,21.15
2016-06-27T07:47:41.768Z,21.21
2016-06-27T07:48:41.849Z,21.32
2016-06-27T07:49:40.535Z,21.35
2016-06-27T07:50:40.528Z,21.39
2016-06-27T07:51:41.694Z,21.37
2016-06-27T07:52:41.096Z,21.4
2016-06-27T07:53:41.092Z,21.43
2016-06-27T07:54:41.717Z,21.5
2016-06-27T07:55:41.068Z,21.5
2016-06-27T07:56:40.453Z,21.58
2016-06-27T07:57:41.859Z,21.67
2016-06-27T07:58:40.713Z,21.73
2016-06-27T07:59:41.412Z,21.69
2016-06-27T08:00:41.394Z,21.69
2016-06-27T08:01:41.815Z,21.75
2016-06-27T08:02:41.650Z,21.62
2016-06-27T08:03:42.456Z,21.55
2016-06-27T08:04:41.298Z,21.55
2016-06-27T08:05:41.890Z,21.48
2016-06-27T08:06:41.981Z,21.42
2016-06-27T08:07:41.055Z,21.36
2016-06-27T08:08:41.061Z,21.39
2016-06-27T08:09:40.917Z,21.43
2016-06-27T08:10:40.930Z,21.37
2016-06-27T08:11:40.886Z,21.37
2016-06-27T08:12:41.687Z,21.37
2016-06-27T08:13:41.237Z,21.43
2016-06-27T08:14:41.891Z,21.52
2016-06-27T08:15:41.627Z,21.5
2016-06-27T08:16:41.844Z,21.55
2016-06-27T08:17:41.233Z,21.61
2016-06-27T08:18:41.811Z,21.73
2016-06-27T08:19:41.146Z,21.85
2016-06-27T08:20:42.287Z,21.83
2016-06-27T08:21:41.135Z,21.88
2016-06-27T08:22:41.174Z,21.82
2016-06-27T08:23:41.246Z,21.72
2016-06-27T08:24:40.857Z,21.75
2016-06-27T08:25:41.715Z,21.7
2016-06-27T08:26:41.070Z,21.76
2016-06-27T08:27:40.750Z,21.72
2016-06-27T08:28:40.712Z,21.73
2016-06-27T08:29:41.805Z,21.75
2016-06-27T08:30:40.892Z,21.72
2016-06-27T08:31:40.161Z,21.76
2016-06-27T08:32:41.002Z,21.85
2016-06-27T08:33:41.493Z,21.77
2016-06-27T08:34:40.824Z,21.67
2016-06-27T08:35:41.329Z,21.76
2016-06-27T08:36:41.573Z,21.7
2016-06-27T08:37:41.377Z,21.64
2016-06-27T08:38:40.815Z,21.7
2016-06-27T08:39:40.541Z,21.76
2016-06-27T08:40:40.519Z,21.8
2016-06-27T08:41:41.113Z,21.93
2016-06-27T08:42:40.044Z,22.07
2016-06-27T08:43:40.612Z,22.08
2016-06-27T08:44:40.475Z,22.17
2016-06-27T08:45:41.070Z,22.29
2016-06-27T08:46:40.452Z,22.45
2016-06-27T08:47:40.451Z,22.39
2016-06-27T08:48:40.422Z,22.54
2016-06-27T08:49:40.412Z,22.45
2016-06-27T08:50:39.944Z,22.48
2016-06-27T08:51:40.390Z,22.51
2016-06-27T08:52:39.781Z,22.53
2016-06-27T08:53:40.457Z,22.51
2016-06-27T08:54:40.351Z,22.47
2016-06-27T08:55:40.352Z,22.35
2016-06-27T08:56:40.330Z,22.38
2016-06-27T08:57:39.739Z,22.44
2016-06-27T08:58:40.372Z,22.41
2016-06-27T08:59:40.314Z,22.47
2016-06-27T09:00:39.687Z,22.57
2016-06-27T09:01:40.287Z,22.66
2016-06-27T09:02:39.664Z,22.73
2016-06-27T09:03:40.463Z,22.91
2016-06-27T09:04:40.898Z,22.96
2016-06-27T09:05:40.843Z,23.08
2016-06-27T09:06:39.662Z,23.24
2016-06-27T09:07:41.191Z,23.21
2016-06-27T09:08:40.191Z,23.21
2016-06-27T09:09:40.179Z,23.28
2016-06-27T09:10:40.305Z,23.39
2016-06-27T09:11:39.586Z,23.51
2016-06-27T09:12:39.635Z,23.44
2016-06-27T09:13:39.550Z,23.4
2016-06-27T09:14:40.151Z,23.43
2016-06-27T09:15:39.544Z,23.41
2016-06-27T09:16:39.514Z,23.4
2016-06-27T09:17:40.119Z,23.31
2016-06-27T09:18:40.119Z,23.18
2016-06-27T09:19:40.687Z,23
2016-06-27T09:20:39.518Z,23.02
2016-06-27T09:21:40.077Z,22.87
2016-06-27T09:22:39.489Z,22.85
2016-06-27T09:23:40.653Z,22.68
2016-06-27T09:24:40.046Z,22.63
2016-06-27T09:25:40.665Z,22.68
2016-06-27T09:26:40.652Z,22.83
2016-06-27T09:27:39.407Z,22.91
2016-06-27T09:28:40.071Z,22.88
2016-06-27T09:29:39.403Z,22.87
2016-06-27T09:30:39.976Z,22.8
2016-06-27T09:31:39.379Z,22.69
2016-06-27T09:32:39.956Z,22.81
2016-06-27T09:33:39.357Z,22.91
2016-06-27T09:34:39.940Z,22.84
2016-06-27T09:35:39.915Z,22.9
2016-06-27T09:36:39.927Z,22.85
2016-06-27T09:37:39.306Z,22.88
2016-06-27T09:38:39.914Z,22.87
2016-06-27T09:39:40.474Z,22.78
2016-06-27T09:40:39.256Z,22.66
2016-06-27T09:41:40.598Z,22.6
2016-06-27T09:42:40.909Z,22.7
2016-06-27T09:43:40.773Z,22.72
2016-06-27T09:44:40.515Z,22.76
2016-06-27T09:45:39.950Z,22.81
2016-06-27T09:46:40.543Z,22.72
2016-06-27T09:47:40.057Z,22.6
2016-06-27T09:48:39.973Z,22.66
2016-06-27T09:49:40.514Z,22.59
2016-06-27T09:50:39.935Z,22.65
2016-06-27T09:51:40.437Z,22.44
2016-06-27T09:52:40.111Z,22.5
2016-06-27T09:53:39.857Z,22.51
2016-06-27T09:54:40.715Z,22.53
2016-06-27T09:55:39.946Z,22.72
2016-06-27T09:56:39.951Z,22.84
2016-06-27T09:57:39.404Z,22.93
2016-06-27T09:58:40.757Z,22.98
2016-06-27T09:59:40.753Z,23.05
2016-06-27T10:00:40.059Z,23.32
2016-06-27T10:01:40.724Z,23.51
2016-06-27T10:02:39.689Z,23.62
2016-06-27T10:03:39.678Z,23.78
2016-06-27T10:04:40.286Z,23.86
2016-06-27T10:05:40.175Z,23.78
2016-06-27T10:06:40.225Z,23.77
2016-06-27T10:07:40.220Z,23.83
2016-06-27T10:08:40.186Z,24.01
2016-06-27T10:09:40.209Z,24.24
2016-06-27T10:10:39.631Z,24.29
2016-06-27T10:11:39.567Z,24.18
2016-06-27T10:12:39.559Z,24.08
2016-06-27T10:13:38.966Z,23.98
2016-06-27T10:14:39.522Z,24.03
2016-06-27T10:15:39.527Z,24.05
2016-06-27T10:16:39.514Z,24.02
2016-06-27T10:17:38.937Z,24.01
2016-06-27T10:18:40.127Z,23.93
2016-06-27T10:19:40.107Z,23.87
2016-06-27T10:20:40.100Z,23.84
2016-06-27T10:21:38.906Z,23.77
2016-06-27T10:22:40.061Z,23.77
2016-06-27T10:23:38.863Z,23.78
2016-06-27T10:24:40.049Z,23.83
2016-06-27T10:25:38.836Z,23.78
2016-06-27T10:26:40.034Z,23.77
2016-06-27T10:27:38.836Z,23.61
2016-06-27T10:28:39.997Z,23.5
2016-06-27T10:29:39.392Z,23.44
2016-06-27T10:30:39.998Z,23.24
2016-06-27T10:31:39.387Z,23.25
2016-06-27T10:32:39.404Z,22.99
2016-06-27T10:33:38.771Z,22.99
2016-06-27T10:34:39.371Z,22.93
2016-06-27T10:35:39.939Z,22.84
2016-06-27T10:36:39.938Z,22.9
2016-06-27T10:37:39.313Z,22.88
2016-06-27T10:38:39.344Z,22.9
2016-06-27T10:39:39.311Z,22.9
2016-06-27T10:40:39.896Z,22.84
2016-06-27T10:41:39.277Z,22.93
2016-06-27T10:42:39.269Z,22.96
2016-06-27T10:43:39.263Z,23.02
2016-06-27T10:44:38.647Z,22.93
2016-06-27T10:45:39.232Z,23.08
2016-06-27T10:46:39.809Z,23.15
2016-06-27T10:47:39.827Z,23.15
2016-06-27T10:48:38.603Z,23.36
2016-06-27T10:49:39.833Z,23.55
2016-06-27T10:50:39.935Z,23.71
2016-06-27T10:51:39.866Z,23.83
2016-06-27T10:52:39.151Z,24.02
2016-06-27T10:53:39.762Z,24.08
2016-06-27T10:54:38.534Z,24.05
2016-06-27T10:55:39.128Z,24.05
2016-06-27T10:56:38.506Z,24.21
2016-06-27T10:57:39.119Z,24.23
2016-06-27T10:58:39.125Z,24.29
2016-06-27T10:59:39.164Z,24.32
2016-06-27T11:00:39.083Z,24.39
2016-06-27T11:01:39.071Z,24.35
2016-06-27T11:02:39.054Z,24.3
2016-06-27T11:03:39.643Z,24.36
2016-06-27T11:04:38.451Z,24.32
2016-06-27T11:05:39.624Z,24.39
2016-06-27T11:06:39.024Z,24.35
2016-06-27T11:07:39.611Z,24.33
2016-06-27T11:08:39.027Z,24.38
2016-06-27T11:09:38.981Z,24.38
2016-06-27T11:10:39.014Z,24.47
2016-06-27T11:11:38.973Z,24.54
2016-06-27T11:12:38.967Z,24.51
2016-06-27T11:13:38.957Z,24.38
2016-06-27T11:14:39.547Z,24.45
2016-06-27T11:15:38.937Z,24.38
2016-06-27T11:16:38.926Z,24.28
2016-06-27T11:17:38.319Z,24.21
2016-06-27T11:18:38.903Z,24.17
2016-06-27T11:19:38.887Z,24.05
2016-06-27T11:20:38.873Z,23.91
2016-06-27T11:21:38.269Z,23.86
2016-06-27T11:22:39.471Z,23.68
2016-06-27T11:23:38.846Z,23.68
2016-06-27T11:24:38.828Z,23.61
2016-06-27T11:25:38.223Z,23.56
2016-06-27T11:26:38.823Z,23.61
2016-06-27T11:27:38.809Z,23.54
2016-06-27T11:28:38.787Z,23.55
2016-06-27T11:29:38.169Z,23.54
2016-06-27T11:30:39.384Z,23.55
2016-06-27T11:31:38.151Z,23.48
2016-06-27T11:32:38.754Z,23.44
2016-06-27T11:33:38.737Z,23.28
2016-06-27T11:34:38.710Z,23.12
2016-06-27T11:35:39.321Z,23.24
2016-06-27T11:36:39.287Z,23.18
2016-06-27T11:37:38.072Z,23.03
2016-06-27T11:38:39.257Z,23.02
2016-06-27T11:39:39.249Z,23
2016-06-27T11:40:39.252Z,23
2016-06-27T11:41:38.031Z,22.99
2016-06-27T11:42:38.032Z,23.09
2016-06-27T11:43:38.603Z,23.13
2016-06-27T11:44:38.585Z,23.18
2016-06-27T11:45:38.610Z,23.23
2016-06-27T11:46:39.166Z,23.2
2016-06-27T11:47:39.148Z,23.27
2016-06-27T11:48:38.542Z,23.23
2016-06-27T11:49:39.126Z,23.2
2016-06-27T11:50:38.522Z,23.23
2016-06-27T11:51:38.504Z,23.27
2016-06-27T11:52:39.084Z,23.32
2016-06-27T11:53:38.475Z,23.34
2016-06-27T11:54:39.061Z,23.32
2016-06-27T11:55:38.473Z,23.36
2016-06-27T11:56:39.043Z,23.27
2016-06-27T11:57:39.024Z,23.28
2016-06-27T11:58:38.419Z,23.23
2016-06-27T11:59:39.008Z,23.21
2016-06-27T12:00:39.003Z,23.1
2016-06-27T12:01:38.420Z,23.13
2016-06-27T12:02:38.972Z,23.08
2016-06-27T12:03:38.980Z,23.08
2016-06-27T12:04:37.735Z,23.15
2016-06-27T12:05:38.926Z,23.15
2016-06-27T12:06:37.716Z,23.1
2016-06-27T12:07:37.711Z,23.05
2016-06-27T12:08:38.894Z,23.17
2016-06-27T12:09:38.281Z,23.2
2016-06-27T12:10:38.867Z,23.12
2016-06-27T12:11:38.255Z,23.03
2016-06-27T12:12:38.834Z,22.88
2016-06-27T12:13:38.238Z,22.87
2016-06-27T12:14:38.835Z,22.98
2016-06-27T12:15:38.811Z,23.05
2016-06-27T12:16:38.210Z,23.13
2016-06-27T12:17:38.198Z,23.18
2016-06-27T12:18:38.174Z,23.18
2016-06-27T12:19:37.559Z,23.28
2016-06-27T12:20:38.762Z,23.4
2016-06-27T12:21:38.753Z,23.39
2016-06-27T12:22:38.703Z,23.2
2016-06-27T12:23:38.144Z,23.15
2016-06-27T12:24:38.701Z,23.02
2016-06-27T12:25:38.102Z,23.03
2016-06-27T12:26:38.066Z,23.06
2016-06-27T12:27:38.062Z,23.1
2016-06-27T12:28:38.080Z,23.21
2016-06-27T12:29:38.643Z,23.18
2016-06-27T12:30:38.661Z,23.18
2016-06-27T12:31:38.655Z,23.12
2016-06-27T12:32:38.602Z,23.28
2016-06-27T12:33:38.007Z,23.21
2016-06-27T12:34:37.391Z,23.4
2016-06-27T12:35:38.571Z,23.54
2016-06-27T12:36:37.958Z,23.56
2016-06-27T12:37:38.571Z,23.58
2016-06-27T12:38:37.381Z,23.47
2016-06-27T12:39:37.923Z,23.47
2016-06-27T12:40:37.943Z,23.47
2016-06-27T12:41:38.525Z,23.4
2016-06-27T12:42:37.886Z,23.54
2016-06-27T12:43:37.894Z,23.65
2016-06-27T12:44:38.805Z,23.62
2016-06-27T12:45:38.705Z,23.71
2016-06-27T12:46:38.693Z,23.69
2016-06-27T12:47:37.454Z,23.71
2016-06-27T12:48:38.615Z,23.71
2016-06-27T12:49:38.015Z,23.78
2016-06-27T12:50:38.754Z,23.77
2016-06-27T12:51:37.832Z,23.8
2016-06-27T12:52:37.223Z,23.86
2016-06-27T12:53:37.199Z,23.77
2016-06-27T12:54:38.411Z,23.73
2016-06-27T12:55:38.382Z,23.61
2016-06-27T12:56:37.863Z,23.56